Time;durP1;ratioP1;P1;durP2;ratioP2;P2;SDS_P1;SDS_P2;PMS_P1;PMS_P2;Temp;Humidity;BMP_temperature;BMP_pressure;BME280_temperature;BME280_humidity;BME280_pressure;Samples;Min_cycle;Max_cycle;Signal;HPM_P1;HPM_P2
2022/07/03 00:00:30;;;;;;;12.25;7.07;;;;;;;16.37;83.66;101622.38;5070838;28;20025;-68
2022/07/03 00:02:55;;;;;;;9.85;7.00;;;;;;;16.37;84.15;101621.53;5070905;28;20396;-68
2022/07/03 00:05:21;;;;;;;9.52;7.55;;;;;;;16.31;83.42;101608.94;5069466;28;20116;-65
2022/07/03 00:07:46;;;;;;;10.50;7.75;;;;;;;16.27;83.45;101608.56;5070833;28;20111;-65
2022/07/03 00:10:12;;;;;;;8.15;7.00;;;;;;;16.29;83.84;101614.53;5070688;28;20036;-65
2022/07/03 00:12:38;;;;;;;11.88;7.68;;;;;;;16.25;84.63;101617.91;5070731;28;20453;-65
2022/07/03 00:15:04;;;;;;;11.55;8.50;;;;;;;16.23;84.30;101617.28;5070674;28;20075;-65
2022/07/03 00:17:30;;;;;;;13.07;7.55;;;;;;;16.26;84.13;101617.66;5070531;28;20036;-65
2022/07/03 00:19:55;;;;;;;20.48;8.48;;;;;;;16.28;83.78;101620.16;5070563;28;20032;-65
2022/07/03 00:22:24;;;;;;;10.10;7.78;;;;;;;16.23;83.93;101607.34;5070698;28;20528;-65
2022/07/03 00:25:05;;;;;;;8.63;7.35;;;;;;;16.19;84.54;101615.03;5070295;28;20025;-65
2022/07/03 00:27:33;;;;;;;10.00;6.95;;;;;;;16.15;86.04;101607.59;5070393;28;20085;-65
2022/07/03 00:30:00;;;;;;;13.68;7.97;;;;;;;16.10;85.81;101615.47;5070052;28;20063;-65
2022/07/03 00:32:27;;;;;;;8.75;7.85;;;;;;;16.03;85.22;101614.69;5069848;28;20028;-65
2022/07/03 00:34:54;;;;;;;7.43;6.63;;;;;;;15.96;86.02;101606.66;5070237;28;20110;-65
2022/07/03 00:37:21;;;;;;;10.43;7.03;;;;;;;15.98;86.50;101620.69;5070264;28;20039;-65
2022/07/03 00:39:50;;;;;;;7.63;6.35;;;;;;;15.99;87.03;101625.06;5068924;28;20450;-65
2022/07/03 00:42:16;;;;;;;8.93;7.28;;;;;;;15.97;86.93;101625.25;5070508;28;20139;-65
2022/07/03 00:44:48;;;;;;;8.15;6.28;;;;;;;15.91;87.30;101628.00;5069947;28;20032;-66
2022/07/03 00:47:14;;;;;;;9.55;7.43;;;;;;;15.86;87.00;101630.47;5069997;28;20434;-65
2022/07/03 00:49:43;;;;;;;11.57;6.68;;;;;;;15.82;87.55;101623.88;5069907;28;20043;-65
2022/07/03 00:52:11;;;;;;;9.10;6.78;;;;;;;15.71;87.94;101634.25;5069539;28;20074;-65
2022/07/03 00:54:41;;;;;;;12.35;6.95;;;;;;;15.66;88.08;101642.09;5069945;28;20025;-65
2022/07/03 00:57:15;;;;;;;12.55;8.75;;;;;;;15.65;87.44;101634.25;5070110;28;20082;-65
2022/07/03 00:59:42;;;;;;;10.85;8.48;;;;;;;15.70;85.89;101634.47;5069627;28;20028;-66
2022/07/03 01:02:12;;;;;;;11.57;8.80;;;;;;;15.77;85.60;101644.16;5069714;28;20024;-65
2022/07/03 01:04:50;;;;;;;15.27;9.40;;;;;;;15.82;85.32;101642.69;5070013;28;20028;-65
2022/07/03 01:07:48;;;;;;;13.57;9.15;;;;;;;15.82;85.29;101640.81;5069560;28;20037;-65
2022/07/03 01:10:29;;;;;;;14.88;8.45;;;;;;;15.81;85.63;101643.75;5060424;28;20040;-65
2022/07/03 01:13:12;;;;;;;13.85;9.02;;;;;;;15.78;84.96;101637.75;5069473;28;20020;-65
2022/07/03 01:16:12;;;;;;;13.02;9.05;;;;;;;15.76;85.54;101642.50;5069492;28;20017;-66
2022/07/03 01:18:50;;;;;;;13.45;9.02;;;;;;;15.75;85.58;101642.72;5069516;28;20067;-65
2022/07/03 01:21:29;;;;;;;15.75;9.68;;;;;;;15.73;86.13;101636.72;5069427;28;20530;-65
2022/07/03 01:24:13;;;;;;;11.95;8.77;;;;;;;15.71;85.00;101638.81;5069238;28;20525;-65
2022/07/03 01:26:41;;;;;;;14.18;9.25;;;;;;;15.68;86.34;101636.50;5069243;28;20055;-66
2022/07/03 01:29:15;;;;;;;11.55;9.32;;;;;;;15.66;86.33;101646.63;5069064;28;20105;-66
2022/07/03 01:31:42;;;;;;;13.20;10.00;;;;;;;15.65;86.22;101640.44;5069208;28;20036;-65
2022/07/03 01:34:15;;;;;;;11.15;8.32;;;;;;;15.63;86.30;101639.81;5069144;28;20025;-65
2022/07/03 01:36:43;;;;;;;11.43;8.30;;;;;;;15.62;86.14;101646.25;5069142;28;20472;-66
2022/07/03 01:39:11;;;;;;;13.63;8.18;;;;;;;15.56;86.58;101647.06;5069129;28;20029;-65
2022/07/03 01:41:37;;;;;;;13.20;8.55;;;;;;;15.49;87.07;101639.03;5069299;28;20029;-65
2022/07/03 01:44:04;;;;;;;12.32;8.45;;;;;;;15.49;86.86;101640.91;5068215;28;20093;-66
2022/07/03 01:46:31;;;;;;;12.70;8.15;;;;;;;15.49;86.67;101646.28;5069146;28;20042;-65
2022/07/03 01:48:58;;;;;;;14.75;8.93;;;;;;;15.50;86.75;101646.06;5067664;28;20063;-65
2022/07/03 01:51:24;;;;;;;12.75;8.10;;;;;;;15.52;87.17;101646.66;5068828;28;20056;-65
2022/07/03 01:53:51;;;;;;;9.75;8.00;;;;;;;15.52;86.85;101643.16;5069059;28;20024;-66
2022/07/03 01:56:18;;;;;;;10.00;7.70;;;;;;;15.54;86.33;101641.09;5068809;28;20070;-67
2022/07/03 01:58:44;;;;;;;10.30;7.93;;;;;;;15.53;86.04;101647.50;5068935;28;20020;-67
2022/07/03 02:01:25;;;;;;;12.55;8.00;;;;;;;15.56;85.88;101644.38;5067563;28;20472;-67
2022/07/03 02:04:02;;;;;;;10.67;7.53;;;;;;;15.53;86.32;101642.13;5068860;28;20035;-68
2022/07/03 02:06:33;;;;;;;13.63;8.48;;;;;;;15.51;87.47;101639.66;5068859;28;20020;-68
2022/07/03 02:09:04;;;;;;;13.53;8.27;;;;;;;15.48;87.71;101632.03;5068911;28;20031;-68
2022/07/03 02:11:40;;;;;;;11.32;7.45;;;;;;;15.48;86.51;101633.84;5068647;28;20054;-68
2022/07/03 02:14:29;;;;;;;10.00;7.60;;;;;;;15.44;85.79;101632.63;5068756;28;20485;-68
2022/07/03 02:17:13;;;;;;;11.07;7.20;;;;;;;15.44;85.55;101635.31;5067572;28;20115;-68
2022/07/03 02:19:49;;;;;;;10.52;6.65;;;;;;;15.46;84.95;101636.78;5067409;28;20147;-68
2022/07/03 02:22:25;;;;;;;12.57;7.97;;;;;;;15.46;85.68;101634.09;5068721;28;20041;-68
2022/07/03 02:24:51;;;;;;;8.18;6.32;;;;;;;15.43;86.15;101631.81;5068761;28;20024;-68
2022/07/03 02:27:26;;;;;;;9.30;7.15;;;;;;;15.36;86.25;101624.78;5068818;28;20110;-68
2022/07/03 02:30:02;;;;;;;10.85;7.20;;;;;;;15.34;86.38;101623.13;5068540;28;20403;-68
2022/07/03 02:32:30;;;;;;;9.93;6.10;;;;;;;15.27;85.80;101614.28;5068570;28;20535;-68
2022/07/03 02:35:04;;;;;;;9.38;6.72;;;;;;;15.30;86.04;101615.69;5068346;28;20028;-68
2022/07/03 02:37:34;;;;;;;9.32;6.70;;;;;;;15.25;86.61;101623.56;5068652;28;20031;-68
2022/07/03 02:40:08;;;;;;;8.73;6.60;;;;;;;15.24;86.01;101627.28;5068571;28;20020;-68
2022/07/03 02:42:55;;;;;;;9.02;6.68;;;;;;;15.22;85.93;101623.97;5068607;28;20028;-68
2022/07/03 02:45:22;;;;;;;10.35;7.15;;;;;;;15.23;86.04;101626.47;5068320;28;20033;-68
2022/07/03 02:48:08;;;;;;;11.25;7.10;;;;;;;15.25;85.24;101620.88;5068409;28;20498;-68
2022/07/03 02:50:37;;;;;;;10.02;7.18;;;;;;;15.21;85.44;101620.47;5068317;28;20696;-68
2022/07/03 02:53:16;;;;;;;15.48;7.88;;;;;;;15.20;85.57;101620.69;5068407;28;20063;-68
2022/07/03 02:55:44;;;;;;;12.85;7.93;;;;;;;15.20;85.39;101623.38;5070125;28;20077;-68
2022/07/03 02:58:16;;;;;;;13.52;8.82;;;;;;;15.19;85.90;101630.59;5071960;28;20036;-68
2022/07/03 03:01:06;;;;;;;15.27;9.13;;;;;;;15.17;85.91;101638.06;5072079;28;20025;-68
2022/07/03 03:03:32;;;;;;;14.07;8.55;;;;;;;15.12;85.70;101633.28;5071693;28;20041;-68
2022/07/03 03:06:13;;;;;;;13.82;9.35;;;;;;;15.09;86.18;101630.16;5071984;28;20040;-68
2022/07/03 03:08:49;;;;;;;16.93;9.57;;;;;;;15.10;86.36;101626.47;5071965;28;20046;-68
2022/07/03 03:11:32;;;;;;;15.52;9.00;;;;;;;15.08;86.33;101633.91;5071757;28;20514;-68
2022/07/03 03:13:59;;;;;;;16.25;10.45;;;;;;;15.03;86.50;101626.47;5072253;28;20468;-68
2022/07/03 03:16:26;;;;;;;18.20;10.40;;;;;;;14.98;86.69;101626.25;5071728;28;20033;-68
2022/07/03 03:18:52;;;;;;;13.35;9.52;;;;;;;14.99;86.69;101629.78;5071527;28;20119;-68
2022/07/03 03:21:19;;;;;;;14.30;9.52;;;;;;;14.92;87.03;101629.78;5071674;28;20028;-68
2022/07/03 03:23:48;;;;;;;15.25;9.85;;;;;;;14.88;87.02;101626.69;5071627;28;20032;-68
2022/07/03 03:26:20;;;;;;;15.40;9.68;;;;;;;14.88;87.16;101640.13;5071679;28;20044;-68
2022/07/03 03:28:46;;;;;;;13.07;9.13;;;;;;;14.87;87.08;101640.31;5071307;28;20053;-68
2022/07/03 03:31:12;;;;;;;12.73;8.50;;;;;;;14.84;86.91;101644.22;5071732;28;20067;-68
2022/07/03 03:33:44;;;;;;;14.90;8.18;;;;;;;14.85;86.64;101645.06;5071462;28;20028;-68
2022/07/03 03:36:11;;;;;;;11.60;8.32;;;;;;;14.84;86.52;101654.16;5071375;28;20030;-68
2022/07/03 03:38:38;;;;;;;12.05;7.78;;;;;;;14.83;87.04;101655.19;5071393;28;20029;-68
2022/07/03 03:41:04;;;;;;;13.45;7.63;;;;;;;14.81;87.22;101652.69;5071275;28;20105;-68
2022/07/03 03:43:31;;;;;;;13.02;7.63;;;;;;;14.82;87.50;101656.22;5071292;28;20043;-68
2022/07/03 03:45:57;;;;;;;11.60;7.72;;;;;;;14.82;87.12;101651.66;5071054;28;20036;-68
2022/07/03 03:48:22;;;;;;;12.18;8.20;;;;;;;14.81;87.20;101647.34;5071038;28;20028;-68
2022/07/03 03:50:48;;;;;;;13.20;8.32;;;;;;;14.80;87.82;101648.38;5070959;28;20465;-68
2022/07/03 03:53:15;;;;;;;16.33;7.70;;;;;;;14.83;87.72;101647.13;5071044;28;20590;-68
2022/07/03 03:56:15;;;;;;;12.27;7.45;;;;;;;14.85;87.18;101655.78;5070840;28;20031;-68
2022/07/03 03:58:42;;;;;;;12.93;7.25;;;;;;;14.86;87.26;101654.78;5059061;28;20052;-68
2022/07/03 04:01:09;;;;;;;11.55;7.25;;;;;;;14.87;86.92;101661.78;5070941;28;20063;-68
2022/07/03 04:03:36;;;;;;;12.45;7.90;;;;;;;14.87;87.21;101657.25;5070869;28;20135;-68
2022/07/03 04:06:02;;;;;;;10.65;7.68;;;;;;;14.89;86.96;101657.88;5070777;28;20035;-68
2022/07/03 04:08:28;;;;;;;11.73;7.75;;;;;;;14.93;87.28;101660.13;5070258;28;20488;-68
2022/07/03 04:10:54;;;;;;;13.13;7.38;;;;;;;14.97;86.69;101650.66;5070620;28;20028;-68
2022/07/03 04:13:20;;;;;;;12.23;6.85;;;;;;;14.97;86.54;101638.03;5070624;28;20644;-68
2022/07/03 04:15:47;;;;;;;10.23;7.50;;;;;;;15.05;86.33;101640.53;5070593;28;20388;-68
2022/07/03 04:18:12;;;;;;;11.82;6.88;;;;;;;15.12;86.00;101641.34;5070522;28;20043;-68
2022/07/03 04:20:37;;;;;;;13.00;7.22;;;;;;;15.17;85.88;101639.88;5070466;28;20024;-68
2022/07/03 04:23:03;;;;;;;11.13;7.32;;;;;;;15.19;85.73;101638.66;5070406;28;20032;-68
2022/07/03 04:25:28;;;;;;;12.98;6.75;;;;;;;15.20;86.41;101648.38;5070310;28;20032;-68
2022/07/03 04:27:54;;;;;;;11.23;6.53;;;;;;;15.20;86.06;101651.06;5070280;28;20502;-68
2022/07/03 04:30:20;;;;;;;11.68;6.95;;;;;;;15.21;85.52;101644.66;5070452;28;20049;-68
2022/07/03 04:32:46;;;;;;;10.45;6.68;;;;;;;15.18;86.12;101650.44;5070115;28;20036;-68
2022/07/03 04:35:11;;;;;;;10.02;6.75;;;;;;;15.12;86.04;101660.16;5070132;28;20481;-68
2022/07/03 04:37:37;;;;;;;9.88;6.30;;;;;;;15.10;86.34;101664.91;5070167;28;20107;-68
2022/07/03 04:40:02;;;;;;;8.07;6.70;;;;;;;15.11;86.22;101663.03;5070072;28;20025;-68
2022/07/03 04:42:28;;;;;;;10.93;6.95;;;;;;;15.14;86.23;101659.94;5070074;28;20032;-68
2022/07/03 04:44:53;;;;;;;8.88;6.65;;;;;;;15.22;86.37;101656.22;5070250;28;20077;-68
2022/07/03 04:47:18;;;;;;;11.90;6.75;;;;;;;15.39;85.69;101659.31;5068899;28;20055;-68
2022/07/03 04:49:44;;;;;;;11.23;7.30;;;;;;;15.57;84.98;101671.06;5069976;28;20031;-68
2022/07/03 04:52:10;;;;;;;9.40;7.20;;;;;;;15.67;84.34;101669.81;5070288;28;20463;-67
2022/07/03 04:54:36;;;;;;;11.63;6.97;;;;;;;15.72;84.54;101662.81;5068485;28;20145;-67
2022/07/03 04:57:02;;;;;;;11.20;6.78;;;;;;;15.81;84.14;101663.41;5069848;28;20040;-67
2022/07/03 04:59:28;;;;;;;13.13;7.97;;;;;;;15.89;84.75;101665.84;5068282;28;20403;-67
2022/07/03 05:01:53;;;;;;;11.90;6.78;;;;;;;15.98;84.83;101674.50;5069715;28;20032;-67
2022/07/03 05:04:18;;;;;;;11.60;6.70;;;;;;;16.05;83.72;101671.81;5069628;28;20031;-67
2022/07/03 05:06:44;;;;;;;10.27;6.55;;;;;;;16.10;83.73;101663.91;5069581;28;20111;-67
2022/07/03 05:09:10;;;;;;;11.70;6.63;;;;;;;16.16;82.91;101666.56;5069412;28;20107;-67
2022/07/03 05:11:35;;;;;;;11.88;7.25;;;;;;;16.34;81.28;101665.88;5069340;28;20086;-65
2022/07/03 05:14:01;;;;;;;12.93;7.43;;;;;;;16.30;81.31;101664.66;5069493;28;20559;-65
2022/07/03 05:16:27;;;;;;;11.25;7.30;;;;;;;16.17;82.26;101662.84;5069635;28;20119;-65
2022/07/03 05:18:52;;;;;;;13.63;7.50;;;;;;;16.05;82.46;101671.81;5069214;28;20108;-65
2022/07/03 05:21:17;;;;;;;11.48;7.55;;;;;;;16.05;83.02;101678.00;5069296;28;20119;-65
2022/07/03 05:23:42;;;;;;;11.40;7.80;;;;;;;16.12;83.65;101675.31;5069212;28;20525;-65
2022/07/03 05:26:08;;;;;;;13.15;9.43;;;;;;;16.27;83.19;101670.47;5069202;28;20029;-65
2022/07/03 05:28:34;;;;;;;12.23;7.07;;;;;;;16.43;82.10;101685.31;5069087;28;20415;-65
2022/07/03 05:30:59;;;;;;;9.88;7.07;;;;;;;16.45;82.25;101680.50;5069157;28;20400;-66
2022/07/03 05:33:25;;;;;;;14.30;7.63;;;;;;;16.48;81.96;101679.25;5069219;28;20032;-65
2022/07/03 05:35:50;;;;;;;11.02;7.45;;;;;;;16.49;83.31;101679.06;5069123;28;20033;-65
2022/07/03 05:39:31;;;;;;;11.32;7.25;;;;;;;16.44;82.18;101677.00;5069098;28;20503;-65
2022/07/03 05:41:01;;;;;;;10.18;7.20;;;;;;;16.35;82.39;101678.31;5068728;28;20043;-65
2022/07/03 05:43:26;;;;;;;10.27;5.95;;;;;;;16.30;81.56;101682.69;5069090;28;20033;-65
2022/07/03 05:45:51;;;;;;;8.95;5.72;;;;;;;16.22;82.37;101683.75;5069102;28;20128;-65
2022/07/03 05:48:17;;;;;;;10.50;5.85;;;;;;;16.17;82.62;101680.88;5068863;28;20494;-66
2022/07/03 05:50:42;;;;;;;9.57;5.50;;;;;;;16.17;82.56;101676.31;5068620;28;20028;-65
2022/07/03 05:53:07;;;;;;;9.20;5.40;;;;;;;16.24;82.25;101683.53;5068781;28;20447;-65
2022/07/03 05:55:33;;;;;;;11.02;6.20;;;;;;;16.28;82.53;101687.44;5068421;28;20115;-65
2022/07/03 05:57:58;;;;;;;9.30;5.57;;;;;;;16.37;82.75;101680.75;5069180;28;20341;-65
2022/07/03 06:00:23;;;;;;;10.15;5.63;;;;;;;16.49;83.06;101689.81;5068947;28;20032;-67
2022/07/03 06:02:49;;;;;;;7.32;5.00;;;;;;;16.56;82.02;101687.94;5068805;28;20037;-67
2022/07/03 06:05:14;;;;;;;9.35;4.82;;;;;;;17.04;79.68;101695.50;5068870;28;20024;-67
2022/07/03 06:07:39;;;;;;;8.07;3.65;;;;;;;17.45;77.96;101687.94;5068687;28;20476;-67
2022/07/03 06:10:05;;;;;;;6.97;4.40;;;;;;;17.48;77.55;101699.09;5068769;28;20380;-67
2022/07/03 06:12:31;;;;;;;8.20;4.10;;;;;;;17.34;77.52;101694.84;5068674;28;20028;-67
2022/07/03 06:14:56;;;;;;;11.15;4.82;;;;;;;17.19;78.39;101692.50;5068891;28;20024;-67
2022/07/03 06:17:21;;;;;;;5.25;3.45;;;;;;;17.09;78.44;101689.47;5068936;28;20044;-67
2022/07/03 06:19:47;;;;;;;9.50;4.20;;;;;;;17.03;79.60;101698.44;5068785;28;20529;-67
2022/07/03 06:22:12;;;;;;;8.15;4.40;;;;;;;17.01;80.17;101701.34;5068612;28;20033;-67
2022/07/03 06:24:37;;;;;;;8.00;4.50;;;;;;;17.02;80.88;101699.47;5068858;28;20460;-67
2022/07/03 06:27:04;;;;;;;6.45;3.97;;;;;;;17.02;80.04;101710.25;5068537;28;20089;-67
2022/07/03 06:29:29;;;;;;;7.85;4.10;;;;;;;16.98;80.37;101704.47;5068204;28;20076;-67
2022/07/03 06:31:54;;;;;;;7.25;4.40;;;;;;;17.00;80.83;101707.78;5072370;28;20075;-67
2022/07/03 06:34:20;;;;;;;8.73;4.40;;;;;;;16.99;81.78;101700.72;5072348;28;20391;-67
2022/07/03 06:36:45;;;;;;;9.65;3.80;;;;;;;17.07;81.50;101700.47;5072342;28;20037;-67
2022/07/03 06:39:10;;;;;;;5.57;3.78;;;;;;;17.12;81.36;101705.19;5072446;28;20028;-67
2022/07/03 06:41:36;;;;;;;9.30;4.65;;;;;;;17.18;81.66;101703.50;5072471;28;20024;-67
2022/07/03 06:44:01;;;;;;;10.70;4.28;;;;;;;17.19;81.05;101697.91;5072393;28;20063;-67
2022/07/03 06:46:27;;;;;;;10.20;6.07;;;;;;;17.23;81.03;101695.56;5072251;28;20067;-67
2022/07/03 06:48:52;;;;;;;11.02;4.15;;;;;;;17.28;81.14;101699.25;5072216;28;20043;-67
2022/07/03 06:51:17;;;;;;;9.32;4.20;;;;;;;17.33;82.49;101700.47;5071880;28;20388;-68
2022/07/03 06:53:43;;;;;;;9.65;5.05;;;;;;;17.42;82.51;101696.44;5072109;28;20055;-68
2022/07/03 06:56:08;;;;;;;7.40;4.68;;;;;;;17.48;81.17;101692.88;5071903;28;20044;-67
2022/07/03 06:58:33;;;;;;;8.05;4.18;;;;;;;17.56;80.62;101700.69;5072087;28;20035;-68
2022/07/03 07:00:59;;;;;;;7.63;4.22;;;;;;;17.68;81.92;101706.16;5072397;28;20089;-68
2022/07/03 07:03:24;;;;;;;11.95;5.15;;;;;;;17.75;82.04;101699.63;5070768;28;20067;-75
2022/07/03 07:05:50;;;;;;;9.32;3.60;;;;;;;17.79;80.63;101704.59;5071914;28;20032;-69
2022/07/03 07:08:15;;;;;;;9.57;3.78;;;;;;;17.77;80.39;101701.31;5070622;28;20037;-68
2022/07/03 07:10:40;;;;;;;8.25;3.85;;;;;;;17.82;81.74;101713.13;5071784;28;20060;-68
2022/07/03 07:13:06;;;;;;;6.00;3.03;;;;;;;17.88;80.02;101708.69;5071760;28;20039;-69
2022/07/03 07:15:31;;;;;;;9.55;3.95;;;;;;;17.86;80.29;101703.50;5072005;28;20035;-69
2022/07/03 07:17:56;;;;;;;8.68;3.65;;;;;;;17.84;80.36;101699.38;5071648;28;20086;-69
2022/07/03 07:20:22;;;;;;;5.10;3.40;;;;;;;17.87;80.95;101702.47;5071565;28;20476;-70
2022/07/03 07:22:47;;;;;;;7.57;3.63;;;;;;;17.91;80.52;101706.34;5071714;28;20037;-68
2022/07/03 07:25:12;;;;;;;6.70;4.20;;;;;;;18.02;80.49;101712.06;5071537;28;20056;-68
2022/07/03 07:27:38;;;;;;;7.85;3.40;;;;;;;18.12;79.20;101709.66;5071508;28;20060;-72
2022/07/03 07:30:03;;;;;;;8.68;3.25;;;;;;;18.12;77.37;101715.88;5071622;28;20535;-70
2022/07/03 07:32:29;;;;;;;6.82;3.60;;;;;;;18.13;81.30;101714.00;5071500;28;20032;-70
2022/07/03 07:34:55;;;;;;;8.10;3.60;;;;;;;18.24;79.36;101718.66;5069831;28;20037;-70
2022/07/03 07:37:20;;;;;;;9.00;3.70;;;;;;;18.28;76.37;101713.63;5071223;28;20040;-70
2022/07/03 07:39:45;;;;;;;6.35;2.85;;;;;;;18.31;77.59;101727.50;5071188;28;20028;-70
2022/07/03 07:42:11;;;;;;;10.70;3.00;;;;;;;18.33;76.67;101727.25;5068471;28;20167;-70
2022/07/03 07:44:36;;;;;;;7.65;2.95;;;;;;;18.37;76.76;101737.41;5071289;28;20081;-70
2022/07/03 07:47:01;;;;;;;5.55;2.83;;;;;;;18.36;75.80;101729.50;5071205;28;20032;-70
2022/07/03 07:49:27;;;;;;;5.80;3.15;;;;;;;18.42;77.47;101736.72;5071112;28;20043;-70
2022/07/03 07:51:52;;;;;;;6.03;3.00;;;;;;;18.50;76.82;101732.88;5070963;28;20036;-70
2022/07/03 07:54:18;;;;;;;8.27;2.75;;;;;;;18.61;77.29;101729.41;5071219;28;20036;-70
2022/07/03 07:56:43;;;;;;;11.57;4.05;;;;;;;18.68;77.23;101730.16;5071026;28;20149;-70
2022/07/03 07:59:08;;;;;;;4.30;2.47;;;;;;;18.77;76.91;101725.25;5071124;28;20123;-70
2022/07/03 08:07:02;;;;;;;5.97;2.92;;;;;;;19.04;74.32;101736.50;5071063;28;20055;-70
2022/07/03 08:09:27;;;;;;;8.10;3.20;;;;;;;19.04;72.97;101718.38;5070766;28;20379;-70
2022/07/03 08:11:52;;;;;;;3.97;3.00;;;;;;;19.40;73.48;101734.69;5070557;28;20032;-70
2022/07/03 08:14:18;;;;;;;8.60;3.38;;;;;;;20.75;71.50;101727.28;5070669;28;20042;-71
2022/07/03 08:16:45;;;;;;;6.63;2.50;;;;;;;22.92;59.64;101731.72;5069444;28;20178;-70
2022/07/03 08:19:10;;;;;;;2.88;2.00;;;;;;;24.99;55.78;101718.91;5070497;28;20036;-70
2022/07/03 08:21:35;;;;;;;5.32;2.70;;;;;;;26.81;49.23;101728.78;5070686;28;20043;-70
2022/07/03 08:24:01;;;;;;;4.03;2.88;;;;;;;28.33;45.35;101736.56;5070409;28;20444;-70
2022/07/03 08:26:26;;;;;;;4.43;2.17;;;;;;;29.71;41.40;101730.78;5070694;28;20029;-70
2022/07/03 08:28:51;;;;;;;2.75;1.90;;;;;;;30.35;39.46;101723.44;5070223;28;20097;-70
2022/07/03 08:31:17;;;;;;;3.15;2.53;;;;;;;31.12;38.89;101731.84;5070173;28;20033;-71
2022/07/03 08:33:42;;;;;;;4.90;2.17;;;;;;;31.34;35.73;101731.81;5070188;28;20059;-71
2022/07/03 08:36:07;;;;;;;3.78;2.10;;;;;;;31.14;36.05;101729.59;5070394;28;20388;-71
2022/07/03 08:38:34;;;;;;;6.35;2.28;;;;;;;31.30;35.83;101728.03;5070266;28;20479;-70
2022/07/03 08:41:00;;;;;;;5.18;1.98;;;;;;;31.87;35.08;101728.16;5070377;28;20028;-70
2022/07/03 08:43:26;;;;;;;4.35;1.80;;;;;;;32.24;33.57;101728.75;5070289;28;20078;-70
2022/07/03 08:45:53;;;;;;;7.38;2.88;;;;;;;32.20;34.29;101722.25;5068827;28;20040;-70
2022/07/03 08:48:20;;;;;;;4.47;2.33;;;;;;;32.14;33.49;101731.81;5069939;28;20039;-70
2022/07/03 08:50:46;;;;;;;4.65;1.83;;;;;;;32.46;34.59;101725.06;5069803;28;20029;-71
2022/07/03 08:53:11;;;;;;;3.28;2.45;;;;;;;32.43;33.43;101714.63;5069637;28;20484;-71
2022/07/03 08:55:37;;;;;;;5.93;2.92;;;;;;;32.17;34.47;101719.31;5069689;28;20036;-71
2022/07/03 08:58:05;;;;;;;6.50;2.90;;;;;;;31.99;34.12;101718.47;5070101;28;20078;-71
2022/07/03 09:00:32;;;;;;;5.13;2.53;;;;;;;31.82;33.42;101719.22;5070065;28;20024;-71
2022/07/03 09:02:59;;;;;;;5.50;2.08;;;;;;;32.02;35.29;101726.13;5069864;28;20039;-67
2022/07/03 09:05:24;;;;;;;5.07;2.72;;;;;;;32.26;32.88;101720.97;5069867;28;20025;-67
2022/07/03 09:07:51;;;;;;;3.38;2.22;;;;;;;32.03;33.70;101717.50;5069900;28;20491;-67
2022/07/03 09:10:18;;;;;;;6.03;3.10;;;;;;;30.51;36.59;101714.84;5069818;28;20656;-67
2022/07/03 09:12:45;;;;;;;4.15;2.85;;;;;;;28.44;39.62;101723.56;5069808;28;20025;-67
2022/07/03 09:15:11;;;;;;;4.57;2.53;;;;;;;26.82;44.44;101711.22;5068438;28;20437;-67
2022/07/03 09:17:37;;;;;;;7.18;2.80;;;;;;;25.85;48.53;101709.81;5069669;28;20137;-67
2022/07/03 09:20:06;;;;;;;4.63;2.75;;;;;;;25.02;49.19;101715.63;5069822;28;20040;-67
2022/07/03 09:22:34;;;;;;;4.70;2.25;;;;;;;24.27;49.80;101716.81;5068767;28;20032;-67
2022/07/03 09:25:11;;;;;;;3.17;2.10;;;;;;;23.81;51.67;101715.81;5065424;28;20024;-67
2022/07/03 09:27:38;;;;;;;5.45;2.00;;;;;;;23.34;53.02;101714.69;5065087;28;20047;-67
2022/07/03 09:30:04;;;;;;;3.67;2.67;;;;;;;23.12;52.46;101722.94;5064982;28;20037;-66
2022/07/03 09:32:36;;;;;;;4.90;2.05;;;;;;;22.82;54.70;101728.06;5065717;28;20072;-67
2022/07/03 09:35:21;;;;;;;4.43;1.92;;;;;;;22.60;52.90;101725.41;5065368;28;20028;-68
2022/07/03 09:37:52;;;;;;;4.40;2.17;;;;;;;22.40;55.61;101729.56;5065347;28;20020;-68
2022/07/03 09:40:18;;;;;;;4.57;2.30;;;;;;;22.46;57.33;101727.72;5065196;28;20028;-68
2022/07/03 09:43:03;;;;;;;7.13;2.78;;;;;;;22.53;56.21;101731.88;5064943;28;20103;-69
2022/07/03 09:45:48;;;;;;;6.35;2.55;;;;;;;22.66;58.51;101733.38;5065455;28;20544;-70
2022/07/03 09:48:28;;;;;;;3.78;2.70;;;;;;;22.73;57.49;101731.25;5064923;28;20111;-70
2022/07/03 09:51:28;;;;;;;4.15;2.10;;;;;;;22.66;55.53;101736.09;5065121;28;20439;-69
2022/07/03 09:53:57;;;;;;;7.07;2.83;;;;;;;22.74;57.55;101738.34;5064858;28;20494;-72
2022/07/03 09:56:43;;;;;;;3.45;2.55;;;;;;;22.57;56.72;101743.06;5064819;28;20931;-74
2022/07/03 09:59:14;;;;;;;4.28;2.50;;;;;;;22.62;58.75;101734.94;5064724;28;20051;-74
2022/07/03 10:01:41;;;;;;;5.05;3.00;;;;;;;22.62;56.86;101734.94;5065064;28;20074;-74
2022/07/03 10:04:21;;;;;;;4.53;3.25;;;;;;;22.50;56.44;101743.25;5064496;28;20032;-72
2022/07/03 10:06:57;;;;;;;7.90;2.67;;;;;;;22.40;56.58;101735.00;5064445;28;20383;-74
2022/07/03 10:09:30;;;;;;;5.00;3.20;;;;;;;22.37;56.76;101737.38;5065110;28;20028;-73
2022/07/03 10:11:57;;;;;;;6.82;4.28;;;;;;;22.38;56.76;101747.19;5064264;28;20072;-73
2022/07/03 10:14:28;;;;;;;5.57;3.05;;;;;;;22.41;58.51;101733.91;5064543;28;20020;-73
2022/07/03 10:16:55;;;;;;;6.72;4.70;;;;;;;22.59;58.06;101740.09;5064611;28;20036;-76
2022/07/03 10:19:24;;;;;;;6.68;3.28;;;;;;;22.78;58.10;101737.84;5065273;28;20055;-73
2022/07/03 10:21:55;;;;;;;6.18;3.88;;;;;;;22.76;58.14;101738.06;5064396;28;20020;-74
2022/07/03 10:24:28;;;;;;;4.55;2.90;;;;;;;22.96;58.62;101745.63;5064691;28;20170;-74
2022/07/03 10:26:55;;;;;;;6.05;3.60;;;;;;;23.06;55.38;101742.22;5064661;28;20437;-74
2022/07/03 10:29:27;;;;;;;3.97;3.58;;;;;;;22.97;55.42;101748.09;5064650;28;20491;-75
2022/07/03 10:31:53;;;;;;;5.18;3.55;;;;;;;22.96;56.29;101759.22;5063991;28;20051;-74
2022/07/03 10:34:20;;;;;;;5.55;4.03;;;;;;;22.89;55.74;101748.53;5064769;28;20028;-74
2022/07/03 10:37:06;;;;;;;7.07;4.40;;;;;;;22.82;56.31;101750.66;5064124;28;20032;-73
2022/07/03 10:39:52;;;;;;;3.88;2.67;;;;;;;22.95;57.04;101754.84;5064265;28;20491;-73
2022/07/03 10:45:31;;;;;;;3.15;2.85;;;;;;;23.47;55.69;101745.25;5064723;28;20047;-72
2022/07/03 10:47:57;;;;;;;4.18;3.50;;;;;;;23.51;53.30;101741.75;5064304;28;20025;-73
2022/07/03 10:50:23;;;;;;;3.65;3.35;;;;;;;23.21;53.30;101755.94;5064467;28;20120;-73
2022/07/03 10:52:49;;;;;;;3.53;2.88;;;;;;;22.86;54.56;101754.50;5064302;28;20145;-73
2022/07/03 10:55:16;;;;;;;4.40;3.08;;;;;;;22.62;54.45;101754.00;5064228;28;20151;-73
2022/07/03 10:57:43;;;;;;;5.18;3.78;;;;;;;22.40;55.34;101762.19;5064201;28;20024;-73
2022/07/03 11:00:16;;;;;;;10.35;3.97;;;;;;;22.10;54.61;101755.25;5064858;28;20487;-69
2022/07/03 11:02:43;;;;;;;4.93;2.95;;;;;;;21.95;55.59;101749.59;5066453;28;20107;-67
2022/07/03 11:05:20;;;;;;;5.35;3.53;;;;;;;21.96;57.09;101758.59;5068635;28;20028;-68
2022/07/03 11:07:48;;;;;;;5.68;3.33;;;;;;;22.05;57.44;101757.88;5068677;28;20037;-67
2022/07/03 11:10:16;;;;;;;3.50;2.72;;;;;;;22.05;57.28;101760.59;5068536;28;20024;-67
2022/07/03 11:13:03;;;;;;;3.45;2.55;;;;;;;22.03;55.47;101759.22;5068633;28;20040;-67
2022/07/03 11:15:38;;;;;;;4.28;2.40;;;;;;;22.19;56.08;101742.09;5068527;28;20028;-67
2022/07/03 11:18:16;;;;;;;3.00;2.78;;;;;;;22.53;57.08;101741.91;5072066;28;20127;-67
2022/07/03 11:20:41;;;;;;;3.97;2.92;;;;;;;22.52;55.52;101748.44;5072042;28;20070;-67
2022/07/03 11:23:09;;;;;;;6.20;3.07;;;;;;;22.45;55.36;101748.66;5072002;28;20430;-67
2022/07/03 11:25:49;;;;;;;3.08;2.00;;;;;;;22.29;53.45;101734.03;5071965;28;20266;-67
2022/07/03 11:28:32;;;;;;;3.55;2.00;;;;;;;22.19;54.49;101747.53;5071724;28;20032;-67
2022/07/03 11:33:50;;;;;;;4.95;3.17;;;;;;;21.98;56.60;101740.97;5071968;28;20113;-67
2022/07/03 11:36:15;;;;;;;7.88;4.07;;;;;;;22.00;54.61;101736.09;5071768;28;20028;-67
2022/07/03 11:38:42;;;;;;;2.60;2.40;;;;;;;22.28;53.79;101737.03;5071567;28;20033;-67
2022/07/03 11:41:10;;;;;;;2.42;1.98;;;;;;;22.43;53.17;101733.66;5071590;28;20031;-67